createdAt,value
2022-08-22T00:01:14.566Z,98628.52
2022-08-22T00:02:48.497Z,98635.05
2022-08-22T00:02:52.695Z,98629.47
2022-08-22T00:03:09.767Z,98629.79
2022-08-22T00:03:10.808Z,98639.55
2022-08-22T00:04:07.052Z,98625.15
2022-08-22T00:06:52.471Z,98630.37
2022-08-22T00:09:31.733Z,98628.48
2022-08-22T00:12:35.058Z,98626.66
2022-08-22T00:15:43.367Z,98627.39
2022-08-22T00:18:33.297Z,98629.91
2022-08-22T00:21:14.145Z,98628.34
2022-08-22T00:23:58.685Z,98630.55
2022-08-22T00:26:45.633Z,98631.35
2022-08-22T00:29:19.793Z,98633.94
2022-08-22T00:31:54.854Z,98638.52
2022-08-22T00:34:31.997Z,98637.09
2022-08-22T00:37:21.868Z,98636.75
2022-08-22T00:40:03.324Z,98634.89
2022-08-22T00:42:51.617Z,98636.86
2022-08-22T00:46:02.982Z,98634.27
2022-08-22T00:49:11.279Z,98635.30
2022-08-22T00:51:55.505Z,98635.83
2022-08-22T00:54:23.606Z,98632.69
2022-08-22T00:57:14.554Z,98635.16
2022-08-22T00:59:56.634Z,98639.55
2022-08-22T01:03:09.812Z,98638.39
2022-08-22T01:05:56.024Z,98636.95
2022-08-22T01:08:53.840Z,98642.09
2022-08-22T01:11:35.537Z,98642.50
2022-08-22T01:14:35.068Z,98645.98
2022-08-22T01:17:47.245Z,98644.92
2022-08-22T01:20:52.482Z,98646.33
2022-08-22T01:23:40.552Z,98643.88
2022-08-22T01:26:28.566Z,98642.04
2022-08-22T01:29:10.566Z,98646.80
2022-08-22T01:31:56.300Z,98642.80
2022-08-22T01:35:08.411Z,98641.90
2022-08-22T01:37:51.605Z,98641.61
2022-08-22T01:40:47.592Z,98637.54
2022-08-22T01:43:59.299Z,98635.52
2022-08-22T01:46:47.188Z,98633.66
2022-08-22T01:49:15.189Z,98635.85
2022-08-22T01:51:51.167Z,98633.80
2022-08-22T01:54:55.152Z,98635.55
2022-08-22T01:57:25.285Z,98636.22
2022-08-22T01:59:58.002Z,98635.77
2022-08-22T02:02:44.339Z,98633.37
2022-08-22T02:05:51.029Z,98633.24
2022-08-22T02:08:45.221Z,98631.46
2022-08-22T02:11:35.098Z,98634.02
2022-08-22T02:14:28.719Z,98632.15
2022-08-22T02:17:20.137Z,98636.34
2022-08-22T02:20:20.423Z,98636.19
2022-08-22T02:23:04.297Z,98634.70
2022-08-22T02:25:51.543Z,98636.10
2022-08-22T02:28:57.491Z,98627.58
2022-08-22T02:31:28.976Z,98634.09
2022-08-22T02:34:01.290Z,98631.65
2022-08-22T02:36:41.676Z,98634.16
2022-08-22T02:39:18.943Z,98636.38
2022-08-22T02:42:08.908Z,98641.95
2022-08-22T02:44:42.865Z,98646.64
2022-08-22T02:47:33.106Z,98644.73
2022-08-22T02:50:07.455Z,98644.43
2022-08-22T02:53:27.301Z,98643.96
2022-08-22T02:56:06.419Z,98639.52
2022-08-22T02:58:49.965Z,98644.09
2022-08-22T03:01:33.907Z,98644.05
2022-08-22T03:04:21.427Z,98642.55
2022-08-22T03:07:05.730Z,98640.66
2022-08-22T03:09:40.425Z,98639.70
2022-08-22T03:12:36.063Z,98644.23
2022-08-22T03:15:09.831Z,98645.17
2022-08-22T03:17:48.455Z,98638.37
2022-08-22T03:20:45.810Z,98637.21
2022-08-22T03:23:24.114Z,98638.56
2022-08-22T03:26:14.572Z,98642.27
2022-08-22T03:28:58.983Z,98644.02
2022-08-22T03:31:30.964Z,98643.67
2022-08-22T03:34:17.276Z,98644.76
2022-08-22T03:37:08.258Z,98648.42
2022-08-22T03:39:55.191Z,98647.44
2022-08-22T03:42:35.738Z,98649.73
2022-08-22T03:45:21.919Z,98650.38
2022-08-22T03:48:27.428Z,98654.23
2022-08-22T03:51:10.770Z,98652.95
2022-08-22T03:53:52.356Z,98654.88
2022-08-22T03:56:54.065Z,98652.98
2022-08-22T03:59:56.194Z,98652.75
2022-08-22T04:02:41.919Z,98653.86
2022-08-22T04:05:25.678Z,98654.13
2022-08-22T04:08:11.215Z,98654.42
2022-08-22T04:11:08.264Z,98655.73
2022-08-22T04:13:56.261Z,98663.02
2022-08-22T04:16:46.212Z,98659.52
2022-08-22T04:19:25.264Z,98659.23
2022-08-22T04:22:08.281Z,98659.44
2022-08-22T04:24:56.823Z,98659.42
2022-08-22T04:27:32.962Z,98663.52
2022-08-22T04:30:19.717Z,98654.92
2022-08-22T04:32:54.465Z,98658.94
2022-08-22T04:35:37.341Z,98659.55
2022-08-22T04:38:18.803Z,98663.95
2022-08-22T04:40:50.327Z,98662.59
2022-08-22T04:43:54.092Z,98666.49
2022-08-22T04:46:38.890Z,98672.92
2022-08-22T04:49:26.138Z,98670.04
2022-08-22T04:52:04.659Z,98669.48
2022-08-22T04:54:46.106Z,98668.70
2022-08-22T04:57:27.457Z,98674.98
2022-08-22T05:00:03.931Z,98677.68
2022-08-22T05:02:37.845Z,98674.05
2022-08-22T05:05:16.129Z,98672.66
2022-08-22T05:07:53.144Z,98676.09
2022-08-22T05:10:32.063Z,98680.39
2022-08-22T05:13:08.000Z,98683.70
2022-08-22T05:15:44.033Z,98683.50
2022-08-22T05:18:29.552Z,98681.23
2022-08-22T05:21:03.730Z,98683.27
2022-08-22T05:23:44.815Z,98683.95
2022-08-22T05:26:14.215Z,98687.11
2022-08-22T05:28:53.264Z,98685.27
2022-08-22T05:31:28.670Z,98683.14
2022-08-22T05:34:14.948Z,98684.17
2022-08-22T05:37:17.830Z,98684.92
2022-08-22T05:39:54.123Z,98683.08
2022-08-22T05:42:32.181Z,98683.54
2022-08-22T05:45:11.564Z,98685.48
2022-08-22T05:47:46.017Z,98683.00
2022-08-22T05:50:20.229Z,98685.73
2022-08-22T05:53:40.005Z,98691.09
2022-08-22T05:56:10.955Z,98693.33
2022-08-22T05:58:39.068Z,98693.94
2022-08-22T06:01:33.638Z,98700.54
2022-08-22T06:04:13.929Z,98706.69
2022-08-22T06:07:26.900Z,98708.91
2022-08-22T06:10:01.017Z,98713.77
2022-08-22T06:12:37.952Z,98718.52
2022-08-22T06:15:12.320Z,98722.34
2022-08-22T06:17:46.950Z,98725.11
2022-08-22T06:20:20.794Z,98723.26
2022-08-22T06:22:54.475Z,98723.98
2022-08-22T06:25:31.567Z,98724.90
2022-08-22T06:28:13.123Z,98724.86
2022-08-22T06:30:45.738Z,98727.76
2022-08-22T06:33:21.186Z,98725.13
2022-08-22T06:36:11.240Z,98727.38
2022-08-22T06:39:17.520Z,98727.85
2022-08-22T06:42:05.898Z,98734.43
2022-08-22T06:44:38.872Z,98732.48
2022-08-22T06:47:16.297Z,98736.33
2022-08-22T06:49:45.899Z,98742.32
2022-08-22T06:52:21.387Z,98745.02
2022-08-22T06:54:58.207Z,98747.63
2022-08-22T06:57:34.921Z,98751.90
2022-08-22T07:00:11.284Z,98747.63
2022-08-22T07:02:56.540Z,98744.29
2022-08-22T07:05:34.619Z,98750.34
2022-08-22T07:08:12.277Z,98753.77
2022-08-22T07:10:46.206Z,98751.41
2022-08-22T07:13:16.833Z,98751.90
2022-08-22T07:15:54.674Z,98755.07
2022-08-22T07:18:29.777Z,98753.42
2022-08-22T07:21:04.536Z,98756.09
2022-08-22T07:23:35.067Z,98763.79
2022-08-22T07:26:40.599Z,98764.69
2022-08-22T07:29:28.440Z,98764.73
2022-08-22T07:32:11.179Z,98763.42
2022-08-22T07:34:52.022Z,98761.90
2022-08-22T07:37:42.138Z,98760.91
2022-08-22T07:40:25.640Z,98768.99
2022-08-22T07:43:28.799Z,98762.89
2022-08-22T07:46:14.183Z,98765.08
2022-08-22T07:49:08.001Z,98762.92
2022-08-22T07:51:40.492Z,98760.88
2022-08-22T07:54:12.613Z,98761.86
2022-08-22T07:56:52.231Z,98757.14
2022-08-22T07:59:22.390Z,98762.06
2022-08-22T08:01:54.766Z,98760.36
2022-08-22T08:04:29.703Z,98761.58
2022-08-22T08:07:02.145Z,98760.35
2022-08-22T08:09:34.844Z,98765.07
2022-08-22T08:12:08.780Z,98768.56
2022-08-22T08:14:41.343Z,98766.31
2022-08-22T08:17:23.667Z,98762.23
2022-08-22T08:19:54.412Z,98761.10
2022-08-22T08:22:27.077Z,98765.80
2022-08-22T08:24:59.066Z,98771.35
2022-08-22T08:27:50.292Z,98768.29
2022-08-22T08:30:34.307Z,98769.17
2022-08-22T08:33:24.741Z,98763.41
2022-08-22T08:36:05.592Z,98764.58
2022-08-22T08:38:51.374Z,98765.80
2022-08-22T08:41:53.187Z,98765.77
2022-08-22T08:44:50.192Z,98766.68
2022-08-22T08:47:33.492Z,98769.29
2022-08-22T08:50:12.907Z,98765.10
2022-08-22T08:53:03.007Z,98764.09
2022-08-22T08:56:03.171Z,98762.51
2022-08-22T08:59:13.391Z,98757.92
2022-08-22T09:02:00.261Z,98759.44
2022-08-22T09:04:49.975Z,98759.59
2022-08-22T09:07:27.120Z,98759.73
2022-08-22T09:10:23.045Z,98758.66
2022-08-22T09:13:11.615Z,98756.55
2022-08-22T09:16:12.085Z,98759.98
2022-08-22T09:18:49.114Z,98757.45
2022-08-22T09:21:44.414Z,98758.35
2022-08-22T09:24:52.475Z,98760.22
2022-08-22T09:27:31.974Z,98760.76
2022-08-22T09:30:12.403Z,98760.25
2022-08-22T09:32:57.642Z,98760.10
2022-08-22T09:35:50.935Z,98762.58
2022-08-22T09:38:48.037Z,98757.70
2022-08-22T09:41:44.744Z,98752.62
2022-08-22T09:44:18.078Z,98753.41
2022-08-22T09:47:24.737Z,98750.70
2022-08-22T09:50:18.223Z,98750.09
2022-08-22T10:21:22.929Z,98739.26
2022-08-22T10:23:54.311Z,98748.77
2022-08-22T10:26:38.569Z,98743.13
2022-08-22T10:29:18.128Z,98741.76
2022-08-22T10:31:59.504Z,98739.66
2022-08-22T10:34:34.171Z,98736.32
2022-08-22T10:37:32.335Z,98741.04
2022-08-22T10:40:24.587Z,98743.89
2022-08-22T10:43:00.000Z,98743.15
2022-08-22T10:45:37.082Z,98738.18
2022-08-22T10:48:08.861Z,98738.81
2022-08-22T10:50:52.274Z,98735.14
2022-08-22T10:53:37.397Z,98734.94
2022-08-22T10:56:37.399Z,98739.88
2022-08-22T10:59:18.012Z,98736.86
2022-08-22T11:02:14.830Z,98737.23
2022-08-22T11:05:19.858Z,98739.37
2022-08-22T11:08:15.506Z,98734.94
2022-08-22T11:10:45.091Z,98738.60
2022-08-22T11:13:27.507Z,98734.73
2022-08-22T11:16:46.995Z,98735.87
2022-08-22T11:20:28.911Z,98735.80
2022-08-22T11:34:42.043Z,98733.27
2022-08-22T11:37:23.818Z,98732.57
2022-08-22T11:40:23.408Z,98734.98
2022-08-22T11:43:26.239Z,98732.59
2022-08-22T11:45:58.690Z,98732.03
2022-08-22T11:48:47.381Z,98733.36
2022-08-22T11:51:37.529Z,98734.09
2022-08-22T11:54:20.093Z,98730.70
2022-08-22T11:57:10.334Z,98725.95
2022-08-22T12:00:29.484Z,98729.11
2022-08-22T12:03:13.022Z,98728.52
2022-08-22T12:05:41.767Z,98732.48
2022-08-22T12:08:21.000Z,98733.30
2022-08-22T12:10:56.704Z,98731.14
2022-08-22T12:13:46.776Z,98728.70
2022-08-22T12:16:28.655Z,98729.17
2022-08-22T12:19:15.444Z,98723.34
2022-08-22T12:21:46.283Z,98720.24
2022-08-22T12:24:32.599Z,98717.98
2022-08-22T12:27:30.571Z,98723.36
2022-08-22T12:30:13.771Z,98722.02
2022-08-22T12:33:04.039Z,98717.34
2022-08-22T12:35:47.422Z,98709.41
2022-08-22T12:38:34.840Z,98700.02
2022-08-22T12:41:46.637Z,98700.84
2022-08-22T12:44:19.350Z,98694.05
2022-08-22T12:46:56.122Z,98685.25
2022-08-22T12:49:30.425Z,98689.39
2022-08-22T12:52:28.533Z,98687.52
2022-08-22T12:55:09.378Z,98684.05
2022-08-22T12:57:50.420Z,98690.11
2022-08-22T13:00:35.408Z,98686.16
2022-08-22T13:03:11.481Z,98686.73
2022-08-22T13:05:44.960Z,98681.95
2022-08-22T13:08:39.283Z,98677.97
2022-08-22T13:11:22.774Z,98685.34
2022-08-22T13:14:00.479Z,98680.77
2022-08-22T13:16:48.943Z,98681.57
2022-08-22T13:19:23.932Z,98686.65
2022-08-22T13:22:04.882Z,98685.25
2022-08-22T13:24:52.267Z,98690.44
2022-08-22T13:27:26.929Z,98695.30
2022-08-22T13:30:02.159Z,98701.61
2022-08-22T13:32:44.490Z,98704.80
2022-08-22T13:35:51.911Z,98704.17
2022-08-22T13:38:48.723Z,98696.12
2022-08-22T13:41:34.769Z,98695.88
2022-08-22T13:44:06.073Z,98696.36
2022-08-22T13:46:44.508Z,98700.00
2022-08-22T13:49:42.411Z,98703.84
2022-08-22T13:52:29.154Z,98707.60
2022-08-22T13:55:29.511Z,98709.48
2022-08-22T13:58:12.645Z,98711.89
2022-08-22T14:01:06.228Z,98714.77
2022-08-22T14:03:48.817Z,98715.17
2022-08-22T14:06:38.348Z,98711.52
2022-08-22T14:09:32.732Z,98705.09
2022-08-22T14:12:19.605Z,98706.14
2022-08-22T14:14:54.917Z,98705.59
2022-08-22T14:17:42.717Z,98709.45
2022-08-22T14:20:32.319Z,98707.64
2022-08-22T14:23:13.969Z,98707.65
2022-08-22T14:25:44.052Z,98709.48
2022-08-22T14:28:29.138Z,98711.55
2022-08-22T14:31:08.384Z,98710.54
2022-08-22T14:33:49.154Z,98708.19
2022-08-22T14:36:23.506Z,98709.92
2022-08-22T14:39:17.983Z,98706.29
2022-08-22T14:41:57.056Z,98706.95
2022-08-22T14:44:36.868Z,98707.60
2022-08-22T14:47:48.175Z,98706.78
2022-08-22T14:50:11.321Z,98708.65
2022-08-22T14:52:44.447Z,98709.27
2022-08-22T14:55:21.330Z,98706.18
2022-08-22T14:58:05.842Z,98697.45
2022-08-22T15:00:39.858Z,98697.92
2022-08-22T15:03:11.420Z,98697.34
2022-08-22T15:05:53.062Z,98707.81
2022-08-22T15:08:24.908Z,98708.94
2022-08-22T15:11:14.414Z,98713.30
2022-08-22T15:14:12.577Z,98710.05
2022-08-22T15:16:55.180Z,98715.40
2022-08-22T15:19:25.609Z,98715.83
2022-08-22T15:22:14.906Z,98715.50
2022-08-22T15:25:14.840Z,98711.61
2022-08-22T15:27:58.177Z,98708.16
2022-08-22T15:30:47.110Z,98702.64
2022-08-22T15:33:32.471Z,98699.70
2022-08-22T15:36:12.464Z,98696.27
2022-08-22T15:38:46.906Z,98688.80
2022-08-22T15:41:22.587Z,98686.05
2022-08-22T15:44:09.547Z,98679.67
2022-08-22T15:47:24.324Z,98678.19
2022-08-22T15:50:02.724Z,98679.41
2022-08-22T15:53:06.987Z,98682.14
2022-08-22T15:55:37.121Z,98681.13
2022-08-22T15:58:13.040Z,98688.34
2022-08-22T16:01:02.812Z,98690.29
2022-08-22T16:03:34.765Z,98689.81
2022-08-22T16:06:07.991Z,98696.68
2022-08-22T16:08:36.538Z,98698.64
2022-08-22T16:11:04.623Z,98708.21
2022-08-22T16:13:43.313Z,98712.50
2022-08-22T16:16:26.729Z,98710.21
2022-08-22T16:18:54.842Z,98707.41
2022-08-22T16:21:22.912Z,98703.88
2022-08-22T16:23:54.298Z,98707.52
2022-08-22T16:26:31.731Z,98709.61
2022-08-22T16:29:00.061Z,98716.83
2022-08-22T16:31:56.411Z,98715.72
2022-08-22T16:34:32.533Z,98714.25
2022-08-22T16:37:04.027Z,98718.91
2022-08-22T16:39:47.274Z,98723.83
2022-08-22T16:42:19.923Z,98729.23
2022-08-22T16:45:05.471Z,98733.27
2022-08-22T16:47:34.200Z,98735.29
2022-08-22T16:50:06.303Z,98733.42
2022-08-22T16:52:37.384Z,98732.95
2022-08-22T16:55:29.222Z,98736.27
2022-08-22T16:58:07.109Z,98737.65
2022-08-22T17:01:05.936Z,98739.88
2022-08-22T17:04:15.307Z,98741.31
2022-08-22T17:07:02.941Z,98742.14
2022-08-22T17:09:49.577Z,98742.20
2022-08-22T17:12:48.096Z,98747.72
2022-08-22T17:15:40.485Z,98747.65
2022-08-22T17:18:44.623Z,98745.41
2022-08-22T17:21:26.422Z,98750.55
2022-08-22T17:23:54.465Z,98750.02
2022-08-22T17:26:50.246Z,98749.01
2022-08-22T17:29:38.271Z,98750.32
2022-08-22T17:32:15.485Z,98754.94
2022-08-22T17:35:02.290Z,98755.13
2022-08-22T17:38:01.420Z,98759.20
2022-08-22T17:40:51.160Z,98761.23
2022-08-22T17:43:49.749Z,98760.78
2022-08-22T17:46:36.632Z,98771.27
2022-08-22T17:49:16.687Z,98778.75
2022-08-22T17:51:56.573Z,98781.91
2022-08-22T17:54:29.520Z,98782.80
2022-08-22T17:57:13.348Z,98785.34
2022-08-22T17:59:58.690Z,98786.27
2022-08-22T18:03:00.761Z,98782.29
2022-08-22T18:05:38.040Z,98779.98
2022-08-22T18:08:37.881Z,98784.12
2022-08-22T18:11:40.146Z,98790.14
2022-08-22T18:14:24.151Z,98795.48
2022-08-22T18:16:54.609Z,98800.90
2022-08-22T18:19:50.404Z,98803.20
2022-08-22T18:22:30.193Z,98809.23
2022-08-22T18:25:22.272Z,98809.02
2022-08-22T18:27:56.272Z,98811.73
2022-08-22T18:30:36.841Z,98810.88
2022-08-22T18:33:31.008Z,98810.16
2022-08-22T18:36:28.156Z,98809.60
2022-08-22T18:39:22.069Z,98810.12
2022-08-22T18:41:59.181Z,98811.96
2022-08-22T18:44:35.023Z,98813.83
2022-08-22T18:47:21.657Z,98812.35
2022-08-22T18:49:58.828Z,98814.15
2022-08-22T18:52:31.861Z,98815.48
2022-08-22T18:55:19.677Z,98816.73
2022-08-22T18:58:13.229Z,98818.31
2022-08-22T19:00:51.157Z,98820.69
2022-08-22T19:03:36.211Z,98820.59
2022-08-22T19:06:13.878Z,98819.06
2022-08-22T19:09:20.452Z,98821.77
2022-08-22T19:11:51.829Z,98823.37
2022-08-22T19:14:27.276Z,98824.48
2022-08-22T19:17:16.525Z,98824.39
2022-08-22T19:20:42.246Z,98825.16
2022-08-22T19:23:32.529Z,98822.35
2022-08-22T19:26:34.620Z,98812.23
2022-08-22T19:29:12.057Z,98811.27
2022-08-22T19:31:44.433Z,98816.82
2022-08-22T19:34:29.860Z,98816.27
2022-08-22T19:37:32.795Z,98814.82
2022-08-22T19:40:10.577Z,98814.45
2022-08-22T19:42:41.841Z,98813.48
2022-08-22T19:45:22.077Z,98814.69
2022-08-22T19:48:14.172Z,98807.30
2022-08-22T19:50:43.552Z,98812.77
2022-08-22T19:53:27.227Z,98818.61
2022-08-22T19:56:13.598Z,98820.62
2022-08-22T19:59:20.482Z,98820.27
2022-08-22T20:01:58.327Z,98820.48
2022-08-22T20:04:44.812Z,98824.33
2022-08-22T20:07:50.512Z,98821.42
2022-08-22T20:10:21.484Z,98818.58
2022-08-22T20:13:05.676Z,98819.31
2022-08-22T20:16:05.386Z,98820.84
2022-08-22T20:19:06.347Z,98823.77
2022-08-22T20:22:00.817Z,98820.26
2022-08-22T20:24:40.275Z,98817.12
2022-08-22T20:27:24.097Z,98814.04
2022-08-22T20:30:30.033Z,98807.40
2022-08-22T20:33:10.720Z,98806.94
2022-08-22T20:35:54.806Z,98812.52
2022-08-22T20:38:32.544Z,98813.52
2022-08-22T20:41:21.047Z,98811.52
2022-08-22T20:44:02.603Z,98809.67
2022-08-22T20:46:57.692Z,98804.77
2022-08-22T20:49:37.770Z,98796.67
2022-08-22T20:52:21.917Z,98802.08
2022-08-22T20:55:31.624Z,98803.55
2022-08-22T20:58:06.636Z,98802.33
2022-08-22T21:00:42.423Z,98802.70
2022-08-22T21:03:22.187Z,98792.06
2022-08-22T21:05:53.314Z,98788.68
2022-08-22T21:08:24.897Z,98790.81
2022-08-22T21:11:21.751Z,98795.60
2022-08-22T21:13:50.587Z,98793.11
2022-08-22T21:16:31.163Z,98797.16
2022-08-22T21:19:03.437Z,98797.10
2022-08-22T21:21:34.413Z,98799.18
2022-08-22T21:24:05.981Z,98794.31
2022-08-22T21:26:46.261Z,98787.77
2022-08-22T21:29:14.391Z,98787.70
2022-08-22T21:31:59.106Z,98782.05
2022-08-22T21:34:42.809Z,98781.48
2022-08-22T21:37:15.901Z,98786.35
2022-08-22T21:40:00.337Z,98795.64
2022-08-22T21:42:36.350Z,98794.46
2022-08-22T21:45:09.672Z,98795.86
2022-08-22T21:47:42.257Z,98788.91
2022-08-22T21:50:13.245Z,98786.86
2022-08-22T21:53:12.117Z,98781.36
2022-08-22T21:55:43.936Z,98777.88
2022-08-22T21:58:18.450Z,98775.89
2022-08-22T22:01:24.827Z,98781.33
2022-08-22T22:03:53.520Z,98778.94
2022-08-22T22:06:21.622Z,98769.05
2022-08-22T22:08:50.175Z,98764.30
2022-08-22T22:11:18.532Z,98765.61
2022-08-22T22:13:46.673Z,98761.62
2022-08-22T22:16:23.126Z,98758.91
2022-08-22T22:18:51.429Z,98754.28
2022-08-22T22:21:19.649Z,98756.46
2022-08-22T22:23:49.569Z,98753.58
2022-08-22T22:26:21.508Z,98745.45
2022-08-22T22:28:50.523Z,98739.27
2022-08-22T22:33:59.333Z,98728.75
2022-08-22T22:36:27.988Z,98715.80
2022-08-22T22:38:56.236Z,98713.98
2022-08-22T22:41:25.984Z,98715.77
2022-08-22T22:43:55.112Z,98722.98
2022-08-22T22:46:27.001Z,98722.46
2022-08-22T22:48:59.230Z,98718.73
2022-08-22T22:51:28.295Z,98715.75
2022-08-22T22:53:57.106Z,98714.73
2022-08-22T22:56:25.387Z,98713.58
2022-08-22T22:59:01.100Z,98715.00
2022-08-22T23:02:03.839Z,98717.79
2022-08-22T23:04:33.641Z,98724.00
2022-08-22T23:07:02.274Z,98724.59
2022-08-22T23:09:38.149Z,98722.81
2022-08-22T23:12:12.199Z,98716.48
2022-08-22T23:14:40.830Z,98716.49
2022-08-22T23:17:09.594Z,98713.41
2022-08-22T23:19:39.178Z,98708.27
2022-08-22T23:22:08.338Z,98708.27
2022-08-22T23:24:39.231Z,98710.73
2022-08-22T23:27:09.186Z,98715.69
2022-08-22T23:29:41.194Z,98721.17
2022-08-22T23:32:10.684Z,98720.63
2022-08-22T23:34:44.131Z,98715.46
2022-08-22T23:37:19.071Z,98718.52
2022-08-22T23:39:47.488Z,98720.60
2022-08-22T23:42:18.127Z,98717.50
2022-08-22T23:44:47.117Z,98721.55
2022-08-22T23:47:15.851Z,98731.05
2022-08-22T23:49:44.387Z,98726.54
2022-08-22T23:52:13.767Z,98724.38
2022-08-22T23:54:42.187Z,98724.88
2022-08-22T23:57:11.500Z,98728.73
2022-08-22T23:59:48.473Z,98729.73
